»·PEaware :: N62BD KOXR-KMRY

N62BD :: KOXR-KMRY

FLIGHT INFORMATION

Flight Status: Arrived
Operator: Privately registered:
United States
More flights under this callsign
Pilot: Bruce D. (32586)
Aircraft: Diamond DA-62
(DA62)
More flights by this aircraft type
Origin: KOXR Oxnard
United States
Destination: KMRY Monterey Peninsula
United States
More flights between these airports :: More routes between these airports
Route:
File this flight plan on PilotEdge
Remarks:
Altitude:
(Current/Filed)
6,500ft
Speed:
(Current/Filed)
0kts
Departed: 27-Dec-20 11:15 AM
Arrived: 27-Dec-20 12:25 PM
Distance/Time
Traveled:
193nm/1:10
Distance/Time
To Go:
Arrived

Flight Plot

Page will automatically refresh every two minutes.

Flight plan parsing failed; only flown route is shown


Map Options




Map Legend


Flown Route
Filed Route
Departure Airport
Arrival Airport
Navaid (VOR, NDB)
Fix

Horizontal Profiles

Position Reports

Time Latitude Longitude Heading Altitude Ground
Speed
27-Dec-20 11:13 34.234806 -119.267646 301 2876ft 110kts
27-Dec-20 11:14 34.252625 -119.298415 299 4118ft 114kts
27-Dec-20 11:15 34.270804 -119.330442 298 5344ft 118kts
27-Dec-20 11:16 34.289975 -119.364404 298 6334ft 142kts
27-Dec-20 11:17 34.315955 -119.410186 299 6333ft 170kts
27-Dec-20 11:18 34.342459 -119.457072 299 6334ft 167kts
27-Dec-20 11:19 34.368681 -119.503532 299 6334ft 167kts
27-Dec-20 11:20 34.394849 -119.549954 299 6335ft 167kts
27-Dec-20 11:21 34.421115 -119.596610 299 6335ft 167kts
27-Dec-20 11:22 34.447229 -119.643056 299 6335ft 167kts
27-Dec-20 11:23 34.473414 -119.689681 299 6334ft 167kts
27-Dec-20 11:24 34.499600 -119.736322 299 6335ft 167kts
27-Dec-20 11:25 34.525615 -119.782761 299 6335ft 167kts
27-Dec-20 11:26 34.551689 -119.829375 299 6335ft 167kts
27-Dec-20 11:27 34.577832 -119.876177 299 6335ft 167kts
27-Dec-20 11:28 34.603886 -119.922881 299 6335ft 167kts
27-Dec-20 11:30 34.634205 -119.977305 299 6335ft 167kts
27-Dec-20 11:30 34.655974 -120.016435 299 6336ft 167kts
27-Dec-20 11:31 34.681936 -120.063158 299 6336ft 167kts
27-Dec-20 11:32 34.708007 -120.110137 299 6336ft 167kts
27-Dec-20 11:33 34.733967 -120.156980 299 6336ft 167kts
27-Dec-20 11:34 34.760029 -120.204068 299 6336ft 167kts
27-Dec-20 11:35 34.785962 -120.250985 299 6336ft 167kts
27-Dec-20 11:36 34.811923 -120.298016 299 6337ft 167kts
27-Dec-20 11:37 34.837910 -120.345155 299 6337ft 167kts
27-Dec-20 11:38 34.863886 -120.392338 299 6337ft 167kts
27-Dec-20 11:39 34.889833 -120.439533 299 6337ft 167kts
27-Dec-20 11:40 34.924788 -120.477487 323 6337ft 172kts
27-Dec-20 11:41 34.964787 -120.509861 324 6337ft 172kts
27-Dec-20 11:42 35.004748 -120.541952 324 6338ft 172kts
27-Dec-20 11:43 35.044884 -120.574182 324 6338ft 172kts
27-Dec-20 11:44 35.085067 -120.606486 324 6338ft 172kts
27-Dec-20 11:45 35.125123 -120.638722 324 6333ft 172kts
27-Dec-20 11:46 35.164905 -120.670779 323 6333ft 171kts
27-Dec-20 11:47 35.204750 -120.702929 323 6333ft 171kts
27-Dec-20 11:48 35.244516 -120.735051 323 6333ft 171kts
27-Dec-20 11:49 35.284135 -120.767091 323 6334ft 171kts
27-Dec-20 11:50 35.323922 -120.799306 323 6334ft 171kts
27-Dec-20 11:51 35.363716 -120.831565 323 6334ft 171kts
27-Dec-20 11:52 35.403448 -120.863813 323 6334ft 171kts
27-Dec-20 11:53 35.443200 -120.896115 323 6334ft 171kts
27-Dec-20 11:54 35.482985 -120.928484 323 6335ft 171kts
27-Dec-20 11:55 35.522717 -120.960849 323 6335ft 171kts
27-Dec-20 11:56 35.562471 -120.993270 323 6335ft 171kts
27-Dec-20 11:57 35.602239 -121.025742 323 6335ft 172kts
27-Dec-20 11:58 35.642022 -121.058266 323 6336ft 172kts
27-Dec-20 11:59 35.681951 -121.090949 323 6336ft 172kts
27-Dec-20 12:00 35.721697 -121.123522 323 6336ft 172kts
27-Dec-20 12:01 35.761531 -121.156208 323 6336ft 172kts
27-Dec-20 12:02 35.801397 -121.188959 323 6336ft 172kts
27-Dec-20 12:03 35.841095 -121.221612 323 6337ft 172kts
27-Dec-20 12:04 35.881012 -121.254486 323 6337ft 172kts
27-Dec-20 12:05 35.920796 -121.287291 323 6337ft 172kts
27-Dec-20 12:06 35.960609 -121.320160 323 6337ft 172kts
27-Dec-20 12:07 36.000527 -121.353157 323 6338ft 172kts
27-Dec-20 12:08 36.040428 -121.386180 323 6338ft 172kts
27-Dec-20 12:09 36.080282 -121.419206 323 6338ft 172kts
27-Dec-20 12:10 36.120039 -121.452188 323 6333ft 172kts
27-Dec-20 12:11 36.159733 -121.485162 323 6333ft 171kts
27-Dec-20 12:12 36.199276 -121.518086 323 6334ft 171kts
27-Dec-20 12:13 36.238838 -121.551052 323 6334ft 171kts
27-Dec-20 12:14 36.278500 -121.584123 323 6334ft 171kts
27-Dec-20 12:15 36.318039 -121.617131 323 6334ft 171kts
27-Dec-20 12:16 36.357448 -121.650073 323 6335ft 171kts
27-Dec-20 12:17 36.399549 -121.682146 330 5613ft 182kts
27-Dec-20 12:18 36.443717 -121.710429 330 4589ft 176kts
27-Dec-20 12:19 36.485713 -121.737639 328 3379ft 166kts
27-Dec-20 12:20 36.524371 -121.765887 327 2349ft 149kts
27-Dec-20 12:21 36.556324 -121.789068 328 1793ft 106kts
27-Dec-20 12:22 36.576173 -121.811528 287 797ft 82kts
27-Dec-20 12:23 36.584007 -121.835621 287 265ft 67kts
27-Dec-20 12:24 36.586855 -121.845966 218 193ft 1kts
27-Dec-20 12:25 36.588992 -121.853025 289 163ft 29kts
27-Dec-20 12:26 36.588782 -121.857288 327 162ft 0kts
27-Dec-20 12:27 36.588782 -121.857287 327 162ft 0kts
27-Dec-20 12:29 36.588782 -121.857287 327 162ft 0kts

Navigation Log

Ident Type
Flight plan parsing failed, navigation log unavailable